Estación municipal de Roda de Ter (Osona, Plana de Vic)

Consulta los datos en tiempo real de la estación municipal de Roda de Ter





Hora UTC 21:50
Temperatura 14.2 ºC
Humedad 73.7 %
Pluja 0.0 mm
Velocidad viento 0.2 km/h
Dirección viento SSW

Webcam

Datos diarios 2026-05-02



Hora UTC (invierno +1h; verano +2h)
Temperatura (ºC) Humedad (%) Velocidad viento (km/h) Precipitación (mm)
Hora UTC Aire Humedad Vel. Dir. Vel. Max Dir. Intent. máx 5 min.
00:05 10.1 97.4 0.0 NE 0.0 NE 0.0
00:10 10.3 97.3 0.0 NNE 0.0 NE 0.0
00:15 10.4 97.3 0.0 NNE 0.0 NE 0.0
00:20 10.5 97.5 0.5 NE 2.5 NE 0.0
00:25 10.7 97.5 0.8 NE 2.8 NE 0.0
00:30 10.8 97.2 1.4 NE 3.2 NE 0.0
00:35 10.9 96.4 1.3 NE 3.5 NE 0.0
00:40 11.0 95.4 0.9 NE 3.5 NE 0.0
00:45 11.1 95.9 0.0 NNE 0.0 NE 0.0
00:50 11.0 95.9 0.0 NNE 0.0 NE 0.0
00:55 11.0 93.7 0.0 NNE 0.0 NE 0.0
01:00 11.2 94.7 0.2 NE 1.4 NE 0.0
01:05 11.1 95.1 0.1 NE 1.4 NE 0.0
01:10 11.1 94.6 0.0 NNE 0.0 NE 0.0
01:15 11.2 94.2 0.0 NNE 0.0 NE 0.0
01:20 11.2 92.7 0.0 NNE 0.0 NE 0.0
01:25 11.3 91.7 0.1 NE 1.4 NE 0.0
01:30 11.4 91.0 0.1 NE 1.4 NE 0.0
01:35 11.4 90.9 0.1 NE 1.4 NE 0.0
01:40 11.4 91.4 0.3 NE 1.8 NE 0.0
01:45 11.4 92.0 0.1 NE 1.4 NE 0.0
01:50 11.4 91.2 0.0 NNE 0.0 NE 0.0
01:55 11.4 92.6 1.8 NE 3.5 NE 0.0
02:00 11.4 93.8 0.8 NE 2.5 NE 0.0
02:05 11.4 92.6 0.0 NE 1.1 NE 0.0
02:10 11.4 92.0 0.8 NE 1.8 NE 0.0
02:15 11.5 92.2 0.9 NE 2.5 NE 0.0
02:20 11.5 91.3 0.5 NE 2.1 NE 0.0
02:25 11.4 90.1 1.7 NE 2.8 NE 0.0
02:30 11.4 91.3 0.9 NE 2.8 NE 0.0
02:35 11.5 89.7 1.4 NNE 3.5 NNE 0.0
02:40 11.5 90.4 1.0 NE 3.2 NE 0.0
02:45 11.5 91.0 1.9 NE 3.5 NE 0.0
02:50 11.5 92.1 0.0 NNE 0.0 NE 0.0
02:55 11.5 90.6 0.0 NNE 0.0 NE 0.0
03:00 11.5 90.9 0.0 NE 1.1 NE 0.0
03:05 11.5 91.2 0.0 NNE 0.0 NE 0.0
03:10 11.5 92.8 0.0 NNE 0.0 NE 0.0
03:15 11.4 92.6 0.0 NNE 0.0 NE 0.0
03:20 11.5 92.9 0.0 NNE 0.0 NE 0.0
03:25 11.5 92.6 0.0 NNE 0.0 NE 0.0
03:30 11.5 93.2 0.0 NNE 0.0 NE 0.0
03:35 11.5 93.4 0.0 NNE 0.0 NE 0.0
03:40 11.6 92.7 0.0 NE 1.1 NE 0.0
03:45 11.6 89.8 0.0 NNE 0.0 NE 0.0
03:50 11.7 90.1 0.0 NNE 0.0 NE 0.0
03:55 11.7 91.5 0.0 NNE 0.0 NE 0.0
04:00 11.7 92.2 0.0 NNE 0.0 NE 0.0
04:05 11.7 90.3 0.0 NNE 0.0 NE 0.0
04:10 11.7 91.0 0.0 NNE 0.0 NE 0.0
04:15 11.8 89.9 0.0 NNE 0.0 NE 0.0
04:20 11.8 88.6 0.0 NNE 0.0 NE 0.0
04:25 11.9 90.1 0.0 NNE 0.0 NE 0.0
04:30 12.0 93.5 0.1 NNE 1.8 NNE 0.0
04:35 11.9 92.5 0.0 NNE 0.0 NNE 0.0
04:40 11.9 91.6 0.0 NNE 1.1 NNE 0.0
04:45 11.9 90.7 0.3 NNE 2.1 NNE 0.0
04:50 11.9 89.4 1.4 NNE 2.8 NNE 0.0
04:55 11.9 91.3 0.8 NNE 2.5 NNE 0.0
05:00 12.0 91.2 1.6 NE 3.5 NE 0.0
05:05 11.9 91.1 1.0 NNE 3.2 NE 0.0
05:10 11.9 92.4 0.9 NNE 2.8 NNE 0.0
05:15 11.9 92.7 0.2 NNE 2.1 NNE 0.0
05:20 11.9 93.5 0.4 NNE 2.5 NNE 0.0
05:25 11.9 91.2 0.9 NNE 2.1 NNE 0.0
05:30 11.9 91.5 0.0 NE 1.1 NE 0.0
05:35 11.9 89.6 0.0 NNE 0.0 NE 0.0
05:40 11.9 91.9 0.0 NNE 0.0 NE 0.0
05:45 11.9 93.2 0.0 NNE 0.0 NE 0.0
05:50 11.9 93.0 0.0 NNE 0.0 NE 0.0
05:55 12.0 93.4 0.0 NNE 0.0 NE 0.0
06:00 12.1 92.1 0.0 NNE 0.0 NE 0.0
06:05 12.2 91.5 0.2 NNE 1.4 NNE 0.0
06:10 12.3 89.8 0.0 NNE 0.0 NNE 0.0
06:15 12.3 90.4 1.5 NNE 3.9 NNE 0.0
06:20 12.3 89.1 1.1 NNE 3.2 NNE 0.0
06:25 12.3 89.6 0.0 NNE 0.0 NNE 0.0
06:30 12.3 91.3 0.0 NNE 0.0 NNE 0.0
06:35 12.4 90.0 0.0 NNE 0.0 NNE 0.0
06:40 12.5 90.9 0.0 NNE 0.0 NNE 0.0
06:45 12.6 90.1 0.9 NE 2.8 NE 0.0
06:50 12.6 90.6 0.0 NNE 0.0 NE 0.0
06:55 12.7 89.7 0.0 NNE 0.0 NE 0.0
07:00 12.7 88.7 0.2 NE 1.8 NE 0.0
07:05 12.6 89.8 0.3 NE 2.5 NE 0.0
07:10 12.7 89.0 0.0 NNE 0.0 NE 0.0
07:15 12.7 89.1 0.0 NE 1.1 NE 0.0
07:20 12.8 89.5 2.0 NE 3.5 NE 0.0
07:25 12.8 89.1 0.6 NE 2.5 NE 0.0
07:30 12.8 88.5 0.4 NE 1.8 NE 0.0
07:35 12.9 87.5 0.1 NE 1.4 NE 0.0
07:40 13.0 86.0 0.0 NNE 0.0 NE 0.0
07:45 13.0 87.2 0.1 NE 1.4 NE 0.0
07:50 13.2 87.7 0.0 NNE 0.0 NE 0.0
07:55 13.2 85.9 0.0 NNE 0.0 NE 0.0
08:00 13.3 83.4 0.0 NNE 0.0 NE 0.0
08:05 13.4 84.2 0.0 NNE 0.0 NE 0.0
08:10 13.4 85.9 0.4 NNE 1.8 NNE 0.0
08:15 13.4 86.2 0.1 NNE 1.8 NNE 0.0
08:20 13.4 83.9 0.0 NNE 1.1 NNE 0.0
08:25 13.4 85.7 1.5 NNE 4.2 NNE 0.0
08:30 13.4 85.8 1.4 NNE 3.9 NNE 0.0
08:35 13.4 86.7 1.5 NNE 3.2 NNE 0.0
08:40 13.5 87.4 1.3 NNE 3.5 NNE 0.0
08:45 13.6 86.4 0.4 NNE 2.8 NNE 0.0
08:50 13.6 86.8 2.7 NE 4.9 NE 0.0
08:55 13.8 86.5 2.2 NNE 4.9 NNE 0.0
09:00 13.8 85.8 3.5 NNE 6.0 NNE 0.0
09:05 13.9 84.2 3.1 NNE 6.4 NNE 0.0
09:10 14.0 84.1 1.4 NNE 2.8 NNE 0.0
09:15 14.0 83.4 3.5 NNE 5.3 NNE 0.0
09:20 14.0 82.6 3.1 NNE 6.4 NNE 0.0
09:25 14.0 82.6 2.3 NNE 4.2 NNE 0.0
09:30 13.9 83.6 0.5 NNE 2.1 NNE 0.0
09:35 13.9 85.2 1.9 NNE 4.2 NNE 0.0
09:40 14.0 86.7 1.8 NNE 4.6 NNE 0.0
09:45 14.0 85.2 3.2 NNE 5.3 NNE 0.0
09:50 14.1 85.4 2.8 NNE 5.3 NNE 0.0
09:55 14.2 83.6 1.2 NNE 3.9 NNE 0.0
10:00 14.2 83.3 1.9 NNE 4.6 NNE 0.0
10:05 14.3 84.3 2.4 NNE 4.9 NNE 0.0
10:10 14.9 82.0 1.2 NNE 4.9 NE 0.0
10:15 15.5 79.2 1.8 NNE 5.3 NE 0.0
10:20 15.9 79.6 2.3 NNE 6.0 NNE 0.0
10:25 16.0 78.5 2.4 NNE 7.8 NE 0.0
10:30 16.2 72.7 5.4 NNE 9.5 NE 0.0
10:35 16.5 69.7 5.1 NNE 11.3 NE 0.0
10:40 16.4 72.0 3.8 N 10.2 N 0.0
10:45 16.4 71.3 3.8 NNW 10.9 NW 0.0
10:50 16.1 72.7 5.7 NW 9.9 NNW 0.0
10:55 16.1 75.3 6.1 NW 9.9 NW 0.0
11:00 16.2 74.3 6.9 NW 12.0 NNW 0.0
11:05 16.0 73.8 8.9 NNW 11.6 NNW 0.0
11:10 16.0 73.4 7.1 NNW 10.6 NW 0.0
11:15 16.0 73.2 8.1 NNW 11.3 NNW 0.0
11:20 16.3 73.6 6.4 N 11.6 N 0.0
11:25 16.6 70.6 5.1 N 9.5 NNW 0.0
11:30 16.8 66.6 7.9 NNW 11.6 NNW 0.0
11:35 16.9 66.3 6.1 N 10.9 NNW 0.0
11:40 17.3 62.8 5.7 N 10.2 N 0.0
11:45 17.3 61.7 5.3 N 10.2 NNE 0.0
11:50 17.4 62.0 5.4 NNW 9.2 NNW 0.0
11:55 17.6 60.4 2.5 N 7.1 N 0.0
12:00 17.7 58.9 4.7 NNE 9.2 N 0.0
12:05 18.1 62.2 7.9 NNW 12.7 NNW 0.0
12:10 18.4 61.2 3.3 NNE 7.1 N 0.0
12:15 18.8 59.9 5.3 NNE 10.6 NE 0.0
12:20 18.7 59.5 5.1 N 10.2 NNW 0.0
12:25 18.8 59.0 3.7 N 9.5 NNW 0.0
12:30 19.2 58.4 5.9 N 11.6 NNW 0.0
12:35 19.4 58.0 4.6 NNW 10.6 SW 0.0
12:40 19.6 58.0 8.9 WNW 17.6 WNW 0.0
12:45 19.3 55.6 6.4 WSW 11.3 WNW 0.0
12:50 19.3 54.8 4.3 SW 10.2 WNW 0.0
12:55 19.7 55.8 8.7 WNW 12.7 W 0.0
13:00 19.7 54.4 4.1 SE 14.8 WNW 0.0
13:05 20.1 54.1 11.2 NW 17.3 NNW 0.0
13:10 20.1 54.9 7.7 NNW 11.6 NNW 0.0
13:15 20.2 53.0 6.9 NW 13.4 W 0.0
13:20 19.8 54.6 8.4 WNW 13.8 W 0.0
13:25 19.7 54.1 6.9 NW 12.4 N 0.0
13:30 20.0 55.1 7.4 NNW 12.7 N 0.0
13:35 20.0 54.9 7.5 NW 11.3 WNW 0.0
13:40 20.1 56.1 7.4 NW 11.6 WNW 0.0
13:45 20.0 51.7 3.2 N 8.5 NNE 0.0
13:50 20.3 52.8 2.1 E 7.1 NE 0.0
13:55 19.9 50.6 3.7 ENE 5.6 E 0.0
14:00 19.5 52.8 2.0 NE 6.7 NNE 0.0
14:05 19.4 56.4 4.1 NNW 8.1 NNW 0.0
14:10 19.4 58.1 5.7 NNW 8.5 NW 0.0
14:15 19.5 54.1 2.2 NNW 5.3 WNW 0.0
14:20 19.5 54.5 3.6 NW 6.4 NNW 0.0
14:25 19.3 56.0 9.2 WNW 19.8 WNW 0.0
14:30 18.7 57.9 12.0 NW 18.4 WNW 0.0
14:35 18.6 58.3 14.8 NNW 21.2 NW 0.0
14:40 18.6 58.5 14.3 NW 20.5 NW 0.0
14:45 18.4 58.5 14.7 NW 19.8 NW 0.0
14:50 18.3 59.6 12.1 NW 15.9 NNW 0.0
14:55 18.6 59.2 9.5 NW 15.2 NW 0.0
15:00 18.7 58.7 9.1 NW 12.0 NW 0.0
15:05 18.5 59.1 8.6 NNW 12.7 NNW 0.0
15:10 18.5 59.3 5.2 NW 8.8 NW 0.0
15:15 18.5 60.1 6.3 NW 9.2 NW 0.0
15:20 18.5 58.9 10.8 NW 15.9 NW 0.0
15:25 18.4 60.2 10.0 NW 14.1 NW 0.0
15:30 18.5 60.0 7.3 NNW 10.6 NNW 0.0
15:35 18.6 60.2 5.1 NNW 8.8 NNW 0.0
15:40 18.9 57.6 4.0 NW 7.1 WNW 0.0
15:45 19.3 55.6 0.9 W 5.3 WNW 0.0
15:50 19.4 52.4 7.8 S 15.9 SSW 0.0
15:55 18.9 50.6 5.5 SSW 10.9 SSW 0.0
16:00 18.8 52.2 6.8 WSW 12.0 W 0.0
16:05 18.5 51.3 8.7 SSW 15.5 S 0.0
16:10 18.2 53.2 7.5 SW 11.6 WSW 0.0
16:15 18.3 52.7 7.5 SW 11.3 WSW 0.0
16:20 18.3 50.7 9.7 SW 15.2 WSW 0.0
16:25 18.2 50.0 10.7 WSW 17.6 WSW 0.0
16:30 18.1 49.0 9.3 WSW 14.1 WSW 0.0
16:35 18.1 48.9 6.3 W 9.9 WNW 0.0
16:40 18.1 50.4 6.3 WNW 8.8 WNW 0.0
16:45 18.1 51.0 5.8 WNW 7.8 W 0.0
16:50 18.0 49.3 7.7 W 12.7 SW 0.0
16:55 17.8 48.9 9.5 WSW 15.2 WSW 0.0
17:00 17.7 48.7 7.6 WSW 13.8 SW 0.0
17:05 17.7 48.0 7.6 WSW 10.9 SW 0.0
17:10 17.7 50.3 6.0 W 9.9 W 0.0
17:15 17.7 48.8 5.8 WSW 9.2 S 0.0
17:20 17.6 50.7 6.6 SW 10.9 SSW 0.0
17:25 17.6 51.5 6.1 SW 9.5 W 0.0
17:30 17.4 54.7 4.3 S 7.1 S 0.0
17:35 17.2 55.9 6.4 S 14.8 SSW 0.0
17:40 17.1 57.7 7.0 SSE 13.8 S 0.0
17:45 17.0 61.3 5.0 SSE 9.2 S 0.0
17:50 16.8 63.4 5.9 S 9.2 S 0.0
17:55 16.6 65.1 7.3 S 9.2 S 0.0
18:00 16.4 66.6 6.8 S 13.8 SSW 0.0
18:05 16.3 67.4 6.3 SSW 13.4 SSW 0.0
18:10 16.4 67.1 8.8 SSW 13.4 SSW 0.0
18:15 16.4 66.9 7.9 SSW 14.8 SSW 0.0
18:20 16.4 65.3 6.5 SSW 12.4 S 0.0
18:25 16.4 62.9 8.8 SSW 12.7 SW 0.0
18:30 16.3 61.6 8.7 SW 15.2 SSW 0.0
18:35 16.1 61.6 11.4 SSW 17.6 SW 0.0
18:40 16.1 61.3 10.4 SW 18.0 SSW 0.0
18:45 16.1 60.9 13.1 SW 21.2 SW 0.0
18:50 16.1 61.3 11.0 SW 16.6 SW 0.0
18:55 16.0 61.8 7.3 SW 12.7 SSW 0.0
19:00 15.9 62.6 7.1 SSW 11.6 SSW 0.0
19:05 15.7 64.2 7.6 SSW 10.6 SSW 0.0
19:10 15.6 64.7 6.6 S 10.2 S 0.0
19:15 15.4 64.7 7.1 S 11.3 S 0.0
19:20 15.3 64.7 6.7 SSE 11.6 S 0.0
19:25 15.2 63.6 8.6 S 12.4 S 0.0
19:30 15.3 61.9 7.1 S 12.4 SSW 0.0
19:35 15.2 61.8 9.1 S 14.1 SSW 0.0
19:40 15.2 61.5 6.9 S 11.6 SSE 0.0
19:45 15.1 62.6 5.8 S 8.8 S 0.0
19:50 15.0 61.7 6.4 S 10.9 S 0.0
19:55 15.1 60.9 6.4 S 9.9 S 0.0
20:00 15.0 62.3 6.6 S 8.8 SSE 0.0
20:05 14.8 63.7 6.5 SSE 8.5 S 0.0
20:10 14.8 64.6 6.3 S 8.5 S 0.0
20:15 14.7 65.0 6.0 S 9.5 S 0.0
20:20 14.7 65.3 6.4 S 9.2 SSE 0.0
20:25 14.6 66.5 5.5 SSE 8.5 SSE 0.0
20:30 14.5 67.7 9.3 SSE 12.7 S 0.0
20:35 14.4 68.2 8.5 S 13.4 S 0.0
20:40 14.3 68.7 5.7 SSW 9.5 S 0.0
20:45 14.3 69.0 4.5 SSW 11.3 WSW 0.0
20:50 14.4 69.8 5.2 SSW 9.9 SW 0.0
20:55 14.3 70.8 5.3 SSW 8.8 SW 0.0
21:00 14.2 72.0 5.5 SW 8.8 SW 0.0
21:05 14.3 72.2 6.7 WSW 10.2 WSW 0.0
21:10 14.3 72.7 7.6 SW 12.4 SSW 0.0
21:15 14.3 73.3 5.7 SSW 8.5 S 0.0
21:20 14.2 74.2 2.7 SSW 6.0 SSW 0.0
21:25 14.2 74.8 2.5 SSW 6.0 SSW 0.0
21:30 14.1 74.8 2.3 SSW 4.2 SSW 0.0
21:35 14.1 74.2 0.0 SSW 1.4 SSW 0.0
21:40 14.1 73.7 0.0 SSW 1.1 SSW 0.0
21:45 14.2 74.2 0.7 SSW 2.5 SSW 0.0
21:50 14.2 73.7 0.2 SSW 2.1 SSW 0.0
Máxima 20.3 97.5 14.8 NNW 21.2 SW 0.0
Mínima 10.1 48.0
Total 0.0